createdAt,value
2023-02-11T00:02:30.179Z,66.30
2023-02-11T00:07:33.986Z,41.45
2023-02-11T00:12:37.853Z,34.42
2023-02-11T00:17:40.452Z,37.80
2023-02-11T00:22:43.734Z,58.45
2023-02-11T00:27:49.610Z,36.92
2023-02-11T00:32:52.360Z,49.00
2023-02-11T00:37:55.454Z,53.67
2023-02-11T00:42:58.555Z,39.30
2023-02-11T00:48:01.106Z,43.83
2023-02-11T00:53:04.477Z,53.75
2023-02-11T00:58:07.134Z,57.63
2023-02-11T01:03:11.146Z,59.60
2023-02-11T01:08:13.972Z,58.90
2023-02-11T01:13:17.966Z,52.28
2023-02-11T01:18:20.704Z,41.03
2023-02-11T01:23:25.151Z,46.42
2023-02-11T01:28:29.990Z,49.25
2023-02-11T01:33:35.132Z,58.92
2023-02-11T01:38:38.268Z,52.13
2023-02-11T01:43:47.235Z,33.50
2023-02-11T01:48:57.954Z,61.55
2023-02-11T01:54:22.437Z,47.15
2023-02-11T01:59:31.952Z,40.55
2023-02-11T02:04:42.430Z,51.83
2023-02-11T02:09:52.281Z,43.60
2023-02-11T02:15:41.159Z,45.95
2023-02-11T02:20:50.902Z,44.60
2023-02-11T02:26:11.666Z,62.92
2023-02-11T02:31:51.348Z,47.22
2023-02-11T02:37:22.022Z,55.50
2023-02-11T02:42:25.418Z,60.25
2023-02-11T02:47:30.186Z,49.03
2023-02-11T02:52:52.270Z,54.08
2023-02-11T02:58:20.020Z,60.28
2023-02-11T03:03:44.380Z,57.95
2023-02-11T03:09:11.585Z,50.03
2023-02-11T03:14:17.165Z,49.55
2023-02-11T03:19:23.961Z,55.42
2023-02-11T03:24:31.826Z,60.00
2023-02-11T03:30:21.216Z,56.05
2023-02-11T03:35:48.873Z,51.33
2023-02-11T03:40:53.435Z,45.55
2023-02-11T03:45:57.200Z,40.47
2023-02-11T03:51:01.931Z,53.28
2023-02-11T04:01:09.856Z,55.63
2023-02-11T04:06:12.514Z,48.83
2023-02-11T04:11:16.324Z,55.90
2023-02-11T04:16:19.088Z,61.43
2023-02-11T04:21:21.601Z,65.80
2023-02-11T04:26:24.268Z,46.03
2023-02-11T04:31:26.944Z,69.97
2023-02-11T04:36:29.564Z,52.92
2023-02-11T04:41:32.185Z,54.75
2023-02-11T04:46:36.047Z,54.47
2023-02-11T04:51:39.083Z,57.97
2023-02-11T04:56:41.871Z,69.03
2023-02-11T05:01:44.700Z,69.72
2023-02-11T05:06:47.302Z,72.00
2023-02-11T05:11:49.946Z,70.20
2023-02-11T05:16:52.642Z,76.50
2023-02-11T05:22:02.489Z,53.92
2023-02-11T05:27:06.291Z,71.82
2023-02-11T05:32:09.141Z,81.85
2023-02-11T05:37:11.870Z,82.40
2023-02-11T05:42:14.883Z,80.95
2023-02-11T05:47:17.447Z,91.85
2023-02-11T05:52:21.237Z,69.47
2023-02-11T05:57:23.887Z,86.35
2023-02-11T06:02:26.541Z,99.18
2023-02-11T06:07:29.240Z,101.63
2023-02-11T06:12:33.116Z,98.90
2023-02-11T06:17:39.230Z,94.18
2023-02-11T06:22:41.867Z,88.25
2023-02-11T06:27:44.461Z,101.75
2023-02-11T06:32:48.453Z,110.47
2023-02-11T06:37:53.980Z,116.13
2023-02-11T06:42:56.841Z,101.30
2023-02-11T06:48:00.609Z,96.45
2023-02-11T06:53:03.406Z,120.30
2023-02-11T06:58:06.186Z,114.47
2023-02-11T07:03:08.892Z,114.63
2023-02-11T07:08:11.504Z,131.43
2023-02-11T07:13:14.147Z,136.75
2023-02-11T07:18:16.925Z,120.97
2023-02-11T07:23:19.638Z,110.03
2023-02-11T07:28:22.281Z,120.68
2023-02-11T07:33:24.884Z,125.70
2023-02-11T07:38:27.700Z,133.55
2023-02-11T07:43:31.743Z,126.32
2023-02-11T07:48:34.916Z,131.70
2023-02-11T07:53:37.879Z,131.13
2023-02-11T07:58:42.294Z,151.93
2023-02-11T08:03:45.417Z,145.55
2023-02-11T08:08:49.086Z,148.32
2023-02-11T08:13:53.328Z,171.80
2023-02-11T08:18:58.129Z,166.75
2023-02-11T08:24:04.252Z,133.23
2023-02-11T08:29:10.629Z,142.93
2023-02-11T08:34:14.478Z,152.63
2023-02-11T08:39:21.301Z,135.93
2023-02-11T08:44:24.578Z,142.30
2023-02-11T08:49:27.195Z,176.63
2023-02-11T08:54:31.349Z,127.07
2023-02-11T08:59:35.296Z,135.43
2023-02-11T09:04:38.942Z,133.17
2023-02-11T09:09:42.534Z,153.40
2023-02-11T09:14:45.703Z,130.23
2023-02-11T09:19:48.847Z,165.98
2023-02-11T09:24:51.593Z,147.88
2023-02-11T09:29:55.222Z,158.48
2023-02-11T09:34:57.954Z,140.27
2023-02-11T09:40:00.660Z,117.55
2023-02-11T09:45:05.309Z,110.22
2023-02-11T09:50:13.876Z,113.68
2023-02-11T09:55:21.739Z,84.55
2023-02-11T10:00:47.549Z,85.82
2023-02-11T10:06:20.012Z,89.97
2023-02-11T10:11:56.802Z,83.25
2023-02-11T10:17:18.090Z,79.18
2023-02-11T10:22:29.524Z,63.65
2023-02-11T10:27:36.527Z,60.10
2023-02-11T10:33:03.580Z,59.17
2023-02-11T10:38:07.800Z,58.03
2023-02-11T10:43:15.593Z,52.20
2023-02-11T10:48:42.224Z,54.90
2023-02-11T10:53:47.459Z,46.70
2023-02-11T10:59:01.092Z,47.03
2023-02-11T11:04:04.015Z,45.50
2023-02-11T11:09:06.826Z,48.45
2023-02-11T11:14:20.189Z,44.97
2023-02-11T11:19:26.440Z,38.92
2023-02-11T11:24:34.551Z,43.00
2023-02-11T11:29:45.193Z,36.47
2023-02-11T11:34:55.657Z,34.67
2023-02-11T11:40:31.906Z,42.85
2023-02-11T11:45:34.494Z,33.00
2023-02-11T11:50:48.453Z,33.83
2023-02-11T11:55:59.828Z,37.50
2023-02-11T12:01:41.422Z,31.35
2023-02-11T12:07:12.747Z,42.78
2023-02-11T12:12:33.935Z,32.83
2023-02-11T12:18:01.511Z,30.17
2023-02-11T12:23:17.542Z,31.65
2023-02-11T12:28:42.027Z,32.83
2023-02-11T12:34:03.366Z,26.45
2023-02-11T12:39:20.888Z,29.98
2023-02-11T12:45:15.102Z,25.10
2023-02-11T12:50:41.391Z,28.90
2023-02-11T12:55:47.159Z,26.15
2023-02-11T13:00:57.254Z,31.33
2023-02-11T13:06:05.712Z,26.75
2023-02-11T13:11:14.412Z,25.77
2023-02-11T13:16:44.115Z,23.30
2023-02-11T13:22:05.422Z,22.95
2023-02-11T13:27:37.385Z,19.60
2023-02-11T13:32:57.088Z,22.55
2023-02-11T13:38:03.575Z,27.50
2023-02-11T13:43:24.171Z,22.98
2023-02-11T13:48:36.293Z,26.05
2023-02-11T13:53:50.725Z,26.40
2023-02-11T13:58:53.638Z,21.75
2023-02-11T14:04:40.963Z,20.33
2023-02-11T14:09:43.708Z,25.08
2023-02-11T14:15:19.059Z,19.35
2023-02-11T14:20:38.242Z,25.08
2023-02-11T14:25:43.803Z,26.02
2023-02-11T14:31:06.768Z,19.70
2023-02-11T14:36:43.676Z,30.35
2023-02-11T14:41:47.717Z,24.95
2023-02-11T14:46:53.439Z,20.38
2023-02-11T14:52:00.485Z,18.85
2023-02-11T14:57:12.499Z,24.27
2023-02-11T15:02:24.454Z,23.75
2023-02-11T15:07:27.418Z,18.38
2023-02-11T15:12:30.119Z,22.63
2023-02-11T15:17:33.214Z,20.98
2023-02-11T15:22:37.461Z,15.93
2023-02-11T15:27:59.251Z,23.38
2023-02-11T15:33:05.443Z,27.77
2023-02-11T15:38:08.198Z,27.05
2023-02-11T15:43:11.976Z,16.40
2023-02-11T15:48:18.859Z,22.08
2023-02-11T15:53:43.133Z,22.30
2023-02-11T15:58:47.827Z,25.88
2023-02-11T16:03:51.972Z,27.15
2023-02-11T16:09:24.544Z,19.15
2023-02-11T16:14:30.158Z,25.00
2023-02-11T16:19:35.586Z,21.17
2023-02-11T16:24:39.247Z,28.77
2023-02-11T16:29:46.159Z,22.10
2023-02-11T16:34:49.371Z,28.52
2023-02-11T16:39:56.659Z,18.45
2023-02-11T16:45:00.318Z,22.15
2023-02-11T16:50:04.477Z,19.80
2023-02-11T16:55:10.213Z,19.83
2023-02-11T17:00:16.364Z,19.83
2023-02-11T17:05:23.149Z,25.60
2023-02-11T17:10:25.921Z,24.88
2023-02-11T17:15:28.646Z,21.92
2023-02-11T17:20:31.288Z,21.00
2023-02-11T17:25:34.282Z,20.50
2023-02-11T17:30:41.203Z,29.08
2023-02-11T17:35:44.082Z,29.65
2023-02-11T17:40:46.712Z,18.65
2023-02-11T17:45:50.487Z,25.88
2023-02-11T17:50:53.545Z,23.80
2023-02-11T17:55:56.952Z,28.10
2023-02-11T18:00:59.953Z,25.45
2023-02-11T18:06:04.499Z,24.63
2023-02-11T18:11:12.382Z,24.58
2023-02-11T18:16:15.968Z,33.40
2023-02-11T18:21:21.023Z,29.55
2023-02-11T18:26:28.210Z,31.20
2023-02-11T18:31:31.317Z,37.50
2023-02-11T18:36:34.608Z,38.65
2023-02-11T18:41:40.170Z,34.50
2023-02-11T18:46:42.903Z,32.65
2023-02-11T18:51:46.189Z,38.50
2023-02-11T18:56:49.522Z,34.22
2023-02-11T19:01:52.405Z,32.88
2023-02-11T19:06:55.241Z,30.60
2023-02-11T19:11:59.890Z,33.67
2023-02-11T19:17:05.643Z,35.92
2023-02-11T19:22:10.536Z,32.60
2023-02-11T19:27:13.577Z,36.53
2023-02-11T19:32:16.445Z,33.60
2023-02-11T19:37:19.350Z,24.40
2023-02-11T19:42:22.190Z,33.45
2023-02-11T19:47:27.954Z,32.13
2023-02-11T19:52:30.808Z,34.40
2023-02-11T19:57:35.302Z,34.88
2023-02-11T20:02:39.673Z,37.28
2023-02-11T20:07:42.554Z,29.55
2023-02-11T20:12:45.154Z,43.95
2023-02-11T20:17:48.050Z,32.80
2023-02-11T20:22:52.219Z,26.60
2023-02-11T20:27:55.089Z,41.55
2023-02-11T20:32:58.672Z,30.05
2023-02-11T20:38:03.122Z,36.80
2023-02-11T20:43:05.885Z,50.13
2023-02-11T20:48:09.560Z,41.97
2023-02-11T20:53:12.608Z,36.88
2023-02-11T20:58:15.418Z,37.78
2023-02-11T21:03:18.328Z,46.97
2023-02-11T21:08:21.029Z,44.35
2023-02-11T21:13:23.661Z,32.28
2023-02-11T21:18:27.710Z,30.70
2023-02-11T21:23:31.974Z,27.95
2023-02-11T21:28:35.245Z,29.20
2023-02-11T21:33:38.096Z,32.58
2023-02-11T21:38:41.958Z,34.17
2023-02-11T21:43:45.048Z,38.00
2023-02-11T21:48:49.494Z,33.85
2023-02-11T21:53:59.698Z,41.05
2023-02-11T21:59:03.106Z,38.60
2023-02-11T22:04:06.807Z,30.48
2023-02-11T22:09:11.162Z,28.35
2023-02-11T22:14:13.742Z,26.02
2023-02-11T22:19:16.396Z,30.08
2023-02-11T22:24:18.999Z,34.30
2023-02-11T22:29:21.669Z,31.65
2023-02-11T22:34:24.290Z,31.20
2023-02-11T22:39:26.878Z,39.88
2023-02-11T22:44:29.475Z,35.13
2023-02-11T22:49:33.350Z,22.85
2023-02-11T22:54:36.351Z,38.30
2023-02-11T22:59:38.942Z,43.03
2023-02-11T23:05:00.009Z,47.65
2023-02-11T23:10:02.720Z,33.35
2023-02-11T23:15:05.511Z,33.95
2023-02-11T23:20:08.645Z,37.28
2023-02-11T23:25:11.211Z,39.47
2023-02-11T23:30:14.310Z,32.40
2023-02-11T23:35:23.022Z,30.10
2023-02-11T23:40:31.121Z,40.70
2023-02-11T23:45:33.704Z,30.95
2023-02-11T23:50:39.616Z,31.10
2023-02-11T23:55:43.371Z,28.60
